San Angelo, TX (76901)

10:47 AM CDT on September 18, 2014 (GMT -0500)
WT_Meso 7NW San Angelo, TX | Change Station
CLOSE
Current Station
Personal Weather Station
Location: San Angelo, TX
Elevation: 1957 ft
Nearby Weather Stations

Elev 1957 ft 31.54 °N, 100.51 °W | Updated 52 minutes ago

Overcast
Overcast
75 °F
Feels Like 75 °F
N
6
Wind Variable Wind from ESE
Gusts 8.0 mph

Today
High -- | Low -- °F
--% Chance of Precip.
Yesterday
High -- | Low -- °F
Precip. -- in
7:27 AM 7:43 PM
Waning Crescent, 26% visible
Pressure 29.87 in
Visibility 10.0 miles
Clouds Clear
Heat Index 75 °F
Dew Point 69 °F
Humidity 81%
Rainfall -999.00 in
Snow Depth Not available.
UV 1 out of 12
Pollen 7.70 out of 12
Air Quality Not available.
Flu Activity Not available.
METAR KSJT 181351Z 09004KT 10SM CLR 23/21 A2994 RMK AO2 SLP114 T02330206

More Conditions Fewer Conditions

Pressure 29.87 in
Visibility 10.0 miles
Clouds Clear
Heat Index 75 °F
Dew Point 69 °F
Humidity 81%
Rainfall -999.00 in
Snow Depth Not available.
UV 1 out of 12
Pollen 7.70 out of 12
Air Quality Not available.
Flu Activity Not available.
METAR KSJT 181351Z 09004KT 10SM CLR 23/21 A2994 RMK AO2 SLP114 T02330206

More Conditions Fewer Conditions

Nowcast | as of 9:33 am CDT on September 18, 2014

Scattered showers and a few thunderstorms will develop this morning and increase in coverage across the Big Country area...along and north of Interstate 20. Heavy rainfall is likely where the showers and storms occur...and this could cause ponding of water on roads. Other scattered showers and possibly a thunderstorm will occur east of a Coleman to Brady line. Elsewhere...isolated showers may develop toward noon.

×

10-Day Weather Forecast

Almanac

Astronomy

Sep. 18, 2014 Rise Set
Actual Time 7:27 AM CDT 7:43 PM CDT
Civil Twilight 7:03 AM CDT 8:08 PM CDT
Nautical Twilight 6:35 AM CDT 8:36 PM CDT
Astronomical Twilight 6:06 AM CDT 9:05 PM CDT
Moon 2:36 AM CDT 4:22 PM CDT
Length of Visible Light 13h 04m
Length of Day
12h 15m
Tomorrow will be 1m 55s shorter.
Waning Crescent, 26% of the Moon is Illuminated
Today
Waning Crescent
Sep 24
New
Oct 1
First Quarter
Oct 8
Full
Oct 15
Last Quarter

Today's Extremes

State Highs State Lows

Community

WunderPhotos

Upload Photos

1,754,388 photos uploaded!

Nearby

Snow Depth

Station Depth Elevation
No new snow has been reported.

Earthquake Activity

City Distance Mag. Time & Date
No recent earthquake activity has been reported nearby.
Minimum magnitude displayed is 2.5.

Coastal Water Temperatures

Place Temperature
No Stations Reporting

Nearby Weather Stations